createdAt,value
2022-10-24T00:01:27.330Z,14.36
2022-10-24T00:03:55.103Z,14.34
2022-10-24T00:06:23.032Z,14.37
2022-10-24T00:08:51.260Z,14.43
2022-10-24T00:11:22.762Z,14.45
2022-10-24T00:13:51.315Z,14.47
2022-10-24T00:16:19.284Z,14.49
2022-10-24T00:18:47.679Z,14.51
2022-10-24T00:21:15.684Z,14.73
2022-10-24T00:23:43.357Z,14.74
2022-10-24T00:26:12.441Z,14.75
2022-10-24T00:28:42.362Z,14.89
2022-10-24T00:31:13.763Z,15.07
2022-10-24T00:33:41.820Z,14.96
2022-10-24T00:36:12.667Z,15.17
2022-10-24T00:38:40.431Z,15.20
2022-10-24T00:41:08.319Z,15.24
2022-10-24T00:43:36.057Z,15.24
2022-10-24T00:46:05.244Z,15.21
2022-10-24T00:48:36.654Z,15.18
2022-10-24T00:51:07.896Z,15.14
2022-10-24T00:53:43.155Z,14.88
2022-10-24T00:56:13.958Z,14.96
2022-10-24T00:58:43.961Z,14.87
2022-10-24T01:01:13.545Z,14.86
2022-10-24T01:03:41.731Z,14.83
2022-10-24T01:06:37.636Z,14.78
2022-10-24T01:09:15.147Z,14.76
2022-10-24T01:12:02.987Z,14.73
2022-10-24T01:14:43.189Z,14.69
2022-10-24T01:17:18.898Z,14.71
2022-10-24T01:20:08.821Z,15.09
2022-10-24T01:22:48.843Z,15.00
2022-10-24T01:25:26.438Z,14.89
2022-10-24T01:28:04.992Z,14.92
2022-10-24T01:30:42.560Z,14.97
2022-10-24T01:33:18.534Z,15.27
2022-10-24T01:35:52.786Z,15.53
2022-10-24T01:38:25.010Z,15.53
2022-10-24T01:40:56.930Z,15.65
2022-10-24T01:43:28.163Z,15.93
2022-10-24T01:46:02.861Z,16.10
2022-10-24T01:48:34.488Z,16.16
2022-10-24T01:51:04.286Z,15.97
2022-10-24T01:53:32.654Z,15.95
2022-10-24T01:56:01.274Z,15.77
2022-10-24T01:58:28.952Z,15.59
2022-10-24T02:01:01.577Z,15.40
2022-10-24T02:03:33.495Z,15.32
2022-10-24T02:06:07.856Z,15.19
2022-10-24T02:08:41.516Z,15.12
2022-10-24T02:11:10.655Z,15.00
2022-10-24T02:13:45.628Z,15.11
2022-10-24T02:16:18.590Z,15.30
2022-10-24T02:18:47.796Z,15.36
2022-10-24T02:21:25.676Z,15.33
2022-10-24T02:23:59.765Z,15.48
2022-10-24T02:26:34.772Z,15.42
2022-10-24T02:29:08.046Z,15.56
2022-10-24T02:31:43.000Z,15.36
2022-10-24T02:36:49.416Z,15.56
2022-10-24T02:39:18.779Z,15.56
2022-10-24T02:41:47.704Z,15.44
2022-10-24T02:44:17.839Z,15.36
2022-10-24T02:46:49.015Z,15.27
2022-10-24T02:49:16.779Z,15.25
2022-10-24T02:51:46.020Z,15.22
2022-10-24T02:54:14.229Z,15.24
2022-10-24T02:56:47.160Z,15.35
2022-10-24T02:59:15.036Z,15.29
2022-10-24T03:01:42.817Z,15.29
2022-10-24T03:04:11.985Z,15.34
2022-10-24T03:06:39.677Z,15.28
2022-10-24T03:09:07.349Z,15.24
2022-10-24T03:11:35.332Z,15.58
2022-10-24T03:14:03.118Z,15.88
2022-10-24T03:16:30.798Z,16.08
2022-10-24T03:18:58.486Z,16.26
2022-10-24T03:21:27.614Z,16.06
2022-10-24T03:23:55.316Z,16.18
2022-10-24T03:26:23.149Z,15.90
2022-10-24T03:28:50.882Z,15.74
2022-10-24T03:31:18.635Z,15.78
2022-10-24T03:33:46.357Z,15.59
2022-10-24T03:36:14.108Z,15.54
2022-10-24T03:38:43.214Z,15.34
2022-10-24T03:41:10.952Z,15.14
2022-10-24T03:43:38.595Z,15.11
2022-10-24T03:46:06.526Z,14.92
2022-10-24T03:48:34.554Z,14.93
2022-10-24T03:51:02.251Z,14.87
2022-10-24T03:53:29.992Z,14.87
2022-10-24T03:56:00.363Z,14.80
2022-10-24T03:58:28.736Z,14.73
2022-10-24T04:00:58.528Z,14.70
2022-10-24T04:03:26.704Z,14.66
2022-10-24T04:05:55.241Z,14.64
2022-10-24T04:08:22.983Z,14.53
2022-10-24T04:10:50.786Z,14.32
2022-10-24T04:13:19.862Z,14.27
2022-10-24T04:15:47.683Z,14.31
2022-10-24T04:18:15.380Z,14.25
2022-10-24T04:20:43.292Z,14.31
2022-10-24T04:23:11.178Z,14.39
2022-10-24T04:25:38.902Z,14.32
2022-10-24T04:28:06.646Z,14.33
2022-10-24T04:30:36.088Z,14.25
2022-10-24T04:33:03.902Z,14.19
2022-10-24T04:35:31.641Z,14.31
2022-10-24T04:37:59.399Z,14.28
2022-10-24T04:40:27.126Z,14.33
2022-10-24T04:42:54.873Z,14.32
2022-10-24T04:45:22.698Z,14.25
2022-10-24T04:47:52.082Z,14.37
2022-10-24T04:50:19.973Z,14.45
2022-10-24T04:52:47.728Z,14.43
2022-10-24T04:55:15.506Z,14.36
2022-10-24T04:57:43.592Z,14.24
2022-10-24T05:00:21.228Z,14.21
2022-10-24T05:02:54.079Z,14.30
2022-10-24T05:05:24.489Z,14.30
2022-10-24T05:07:52.224Z,14.28
2022-10-24T05:10:20.430Z,14.26
2022-10-24T05:12:48.453Z,14.26
2022-10-24T05:15:16.302Z,14.19
2022-10-24T05:17:43.986Z,14.20
2022-10-24T05:20:13.369Z,14.22
2022-10-24T05:22:41.708Z,13.90
2022-10-24T05:25:09.946Z,14.03
2022-10-24T05:27:37.621Z,14.12
2022-10-24T05:30:06.679Z,14.12
2022-10-24T05:32:37.303Z,13.91
2022-10-24T05:35:08.413Z,14.17
2022-10-24T05:37:38.942Z,14.11
2022-10-24T05:40:08.744Z,14.06
2022-10-24T05:42:39.408Z,14.04
2022-10-24T05:45:09.620Z,13.95
2022-10-24T05:47:38.781Z,14.09
2022-10-24T05:50:10.151Z,14.15
2022-10-24T05:52:46.130Z,14.00
2022-10-24T05:55:17.882Z,14.01
2022-10-24T05:57:47.209Z,14.01
2022-10-24T06:00:17.331Z,13.95
2022-10-24T06:05:15.066Z,13.91
2022-10-24T06:07:44.521Z,13.98
2022-10-24T06:10:13.603Z,14.03
2022-10-24T06:12:41.506Z,14.10
2022-10-24T06:15:10.552Z,14.12
2022-10-24T06:17:38.239Z,14.11
2022-10-24T06:20:06.578Z,14.15
2022-10-24T06:22:34.252Z,14.19
2022-10-24T06:25:03.541Z,14.24
2022-10-24T06:27:31.313Z,14.16
2022-10-24T06:29:58.961Z,13.97
2022-10-24T06:32:26.748Z,13.95
2022-10-24T06:34:54.408Z,14.04
2022-10-24T06:37:22.186Z,14.05
2022-10-24T06:39:49.915Z,14.00
2022-10-24T06:42:18.941Z,14.04
2022-10-24T06:44:46.705Z,14.00
2022-10-24T06:47:14.425Z,14.00
2022-10-24T06:49:42.289Z,13.99
2022-10-24T06:52:10.133Z,14.00
2022-10-24T06:54:39.057Z,14.08
2022-10-24T06:57:06.850Z,14.12
2022-10-24T06:59:37.220Z,14.20
2022-10-24T07:02:06.118Z,14.24
2022-10-24T07:04:34.069Z,14.28
2022-10-24T07:07:01.752Z,14.26
2022-10-24T07:09:30.539Z,14.31
2022-10-24T07:11:59.333Z,14.26
2022-10-24T07:14:27.214Z,14.26
2022-10-24T07:16:56.265Z,14.32
2022-10-24T07:19:23.953Z,14.23
2022-10-24T07:21:51.617Z,14.22
2022-10-24T07:24:19.994Z,14.33
2022-10-24T07:26:47.881Z,14.23
2022-10-24T07:29:15.571Z,14.32
2022-10-24T07:31:43.281Z,14.16
2022-10-24T07:34:12.333Z,14.35
2022-10-24T07:36:41.505Z,14.48
2022-10-24T07:39:10.751Z,14.54
2022-10-24T07:41:41.660Z,14.58
2022-10-24T07:44:10.225Z,14.57
2022-10-24T07:46:38.557Z,14.67
2022-10-24T07:49:06.310Z,14.68
2022-10-24T07:51:38.747Z,14.70
2022-10-24T07:54:06.480Z,14.63
2022-10-24T07:56:34.226Z,14.64
2022-10-24T07:59:09.040Z,14.64
2022-10-24T08:01:41.534Z,14.55
2022-10-24T08:04:09.917Z,14.49
2022-10-24T08:06:40.647Z,14.54
2022-10-24T08:09:08.320Z,14.56
2022-10-24T08:11:36.091Z,14.55
2022-10-24T08:14:03.919Z,14.60
2022-10-24T08:16:31.669Z,14.55
2022-10-24T08:18:59.525Z,14.49
2022-10-24T08:21:27.840Z,14.55
2022-10-24T08:23:56.908Z,14.45
2022-10-24T08:26:26.029Z,14.52
2022-10-24T08:28:55.238Z,14.54
2022-10-24T08:31:24.847Z,14.58
2022-10-24T08:33:54.404Z,14.55
2022-10-24T08:36:24.682Z,14.62
2022-10-24T08:38:52.510Z,14.59
2022-10-24T08:41:28.417Z,14.70
2022-10-24T08:43:59.330Z,14.83
2022-10-24T08:46:44.166Z,14.94
2022-10-24T08:49:24.892Z,14.98
2022-10-24T08:51:56.307Z,15.05
2022-10-24T08:54:51.722Z,15.03
2022-10-24T08:57:23.861Z,15.06
2022-10-24T08:59:54.784Z,15.00
2022-10-24T09:02:25.817Z,15.10
2022-10-24T09:04:58.031Z,15.08
2022-10-24T09:07:26.251Z,15.07
2022-10-24T09:10:04.471Z,14.93
2022-10-24T09:12:35.327Z,14.94
2022-10-24T09:15:03.508Z,15.04
2022-10-24T09:17:33.548Z,15.07
2022-10-24T09:20:21.489Z,15.06
2022-10-24T09:22:50.224Z,14.80
2022-10-24T09:25:22.431Z,15.06
2022-10-24T09:27:52.321Z,15.04
2022-10-24T09:30:22.352Z,15.05
2022-10-24T09:32:50.222Z,14.98
2022-10-24T09:35:20.673Z,14.97
2022-10-24T09:37:50.602Z,14.82
2022-10-24T09:40:22.228Z,14.80
2022-10-24T09:42:56.733Z,14.81
2022-10-24T09:45:37.824Z,14.70
2022-10-24T09:48:16.509Z,14.71
2022-10-24T09:50:45.750Z,14.45
2022-10-24T09:53:25.822Z,14.50
2022-10-24T09:56:20.004Z,14.38
2022-10-24T09:58:49.075Z,14.60
2022-10-24T10:01:22.655Z,14.44
2022-10-24T10:04:07.565Z,14.30
2022-10-24T10:06:45.054Z,14.30
2022-10-24T10:09:15.144Z,14.29
2022-10-24T10:11:49.501Z,14.22
2022-10-24T10:14:25.594Z,14.26
2022-10-24T10:17:00.793Z,14.26
2022-10-24T10:19:32.547Z,14.25
2022-10-24T10:22:02.390Z,14.12
2022-10-24T10:24:39.184Z,14.00
2022-10-24T10:27:39.406Z,13.96
2022-10-24T10:30:20.079Z,13.84
2022-10-24T10:33:18.520Z,13.92
2022-10-24T10:35:53.599Z,13.93
2022-10-24T10:38:37.862Z,13.80
2022-10-24T10:41:13.794Z,13.88
2022-10-24T10:43:49.440Z,13.94
2022-10-24T10:46:29.668Z,14.10
2022-10-24T10:49:07.147Z,14.11
2022-10-24T10:51:43.010Z,14.15
2022-10-24T10:54:25.412Z,14.07
2022-10-24T10:56:55.616Z,14.03
2022-10-24T10:59:37.669Z,14.08
2022-10-24T11:02:21.788Z,14.10
2022-10-24T11:04:59.526Z,14.19
2022-10-24T11:07:34.588Z,14.21
2022-10-24T11:10:07.120Z,14.18
2022-10-24T11:12:37.660Z,14.10
2022-10-24T11:15:15.075Z,14.06
2022-10-24T11:17:50.233Z,14.05
2022-10-24T11:20:22.397Z,14.01
2022-10-24T11:22:54.248Z,13.90
2022-10-24T11:25:26.875Z,13.93
2022-10-24T11:28:03.979Z,13.95
2022-10-24T11:30:48.070Z,13.98
2022-10-24T11:33:21.822Z,14.00
2022-10-24T11:36:09.073Z,14.04
2022-10-24T11:38:43.679Z,14.10
2022-10-24T11:41:36.471Z,14.08
2022-10-24T11:44:13.118Z,14.08
2022-10-24T11:46:45.549Z,14.19
2022-10-24T11:49:21.450Z,14.23
2022-10-24T11:51:54.748Z,14.01
2022-10-24T11:54:27.729Z,14.15
2022-10-24T11:56:59.439Z,14.15
2022-10-24T11:59:27.140Z,14.18
2022-10-24T12:02:45.149Z,14.19
2022-10-24T12:05:44.166Z,14.21
2022-10-24T12:08:28.912Z,14.07
2022-10-24T12:11:13.199Z,14.04
2022-10-24T12:13:53.357Z,13.97
2022-10-24T12:16:34.651Z,13.98
2022-10-24T12:19:05.358Z,14.02
2022-10-24T12:21:41.366Z,13.92
2022-10-24T12:24:22.164Z,14.07
2022-10-24T12:26:57.147Z,14.07
2022-10-24T12:29:27.878Z,13.97
2022-10-24T12:31:55.926Z,14.08
2022-10-24T12:34:48.905Z,14.14
2022-10-24T12:37:36.087Z,14.08
2022-10-24T12:40:36.847Z,14.15
2022-10-24T12:43:33.019Z,14.16
2022-10-24T12:46:01.939Z,14.12
2022-10-24T12:48:32.802Z,14.17
2022-10-24T12:51:11.369Z,14.21
2022-10-24T12:54:02.155Z,14.14
2022-10-24T12:56:30.588Z,14.30
2022-10-24T12:59:04.618Z,14.34
2022-10-24T13:01:35.585Z,14.41
2022-10-24T13:04:21.476Z,14.51
2022-10-24T13:07:03.014Z,14.44
2022-10-24T13:09:44.052Z,14.54
2022-10-24T13:12:24.945Z,14.61
2022-10-24T13:15:09.320Z,14.49
2022-10-24T13:17:45.687Z,14.51
2022-10-24T13:20:19.332Z,14.48
2022-10-24T13:22:48.592Z,14.35
2022-10-24T13:25:33.790Z,14.25
2022-10-24T13:28:39.041Z,14.30
2022-10-24T13:31:44.240Z,14.19
2022-10-24T13:34:24.702Z,14.25
2022-10-24T13:37:00.177Z,14.17
2022-10-24T13:39:35.743Z,14.12
2022-10-24T13:42:09.610Z,14.14
2022-10-24T13:44:46.189Z,14.19
2022-10-24T13:47:19.597Z,14.11
2022-10-24T13:49:57.517Z,14.17
2022-10-24T13:52:30.785Z,14.08
2022-10-24T13:55:04.520Z,13.76
2022-10-24T13:57:37.480Z,14.03
2022-10-24T14:00:09.531Z,14.06
2022-10-24T14:02:40.714Z,13.97
2022-10-24T14:05:18.877Z,14.03
2022-10-24T14:07:46.581Z,14.00
2022-10-24T14:10:17.027Z,14.05
2022-10-24T14:12:48.907Z,13.99
2022-10-24T14:15:19.791Z,13.96
2022-10-24T14:17:55.982Z,13.98
2022-10-24T14:20:25.586Z,14.04
2022-10-24T14:22:53.639Z,13.97
2022-10-24T14:25:31.965Z,13.96
2022-10-24T14:28:03.415Z,14.07
2022-10-24T14:30:35.115Z,14.05
2022-10-24T14:33:08.325Z,14.10
2022-10-24T14:35:36.261Z,14.09
2022-10-24T14:38:08.837Z,14.16
2022-10-24T14:40:37.842Z,14.02
2022-10-24T14:43:07.053Z,14.12
2022-10-24T14:45:34.918Z,14.16
2022-10-24T14:48:03.347Z,14.08
2022-10-24T14:50:38.501Z,14.12
2022-10-24T14:53:06.716Z,13.98
2022-10-24T14:55:34.723Z,14.03
2022-10-24T14:58:02.541Z,14.02
2022-10-24T15:00:39.820Z,13.99
2022-10-24T15:03:08.015Z,13.94
2022-10-24T15:05:36.836Z,13.98
2022-10-24T15:08:24.443Z,13.93
2022-10-24T15:11:05.465Z,13.79
2022-10-24T15:13:34.763Z,13.69
2022-10-24T15:16:03.891Z,13.69
2022-10-24T15:18:33.453Z,13.73
2022-10-24T15:21:04.837Z,13.77
2022-10-24T15:23:35.214Z,13.75
2022-10-24T15:26:09.113Z,13.65
2022-10-24T15:28:46.116Z,13.49
2022-10-24T15:31:16.887Z,13.57
2022-10-24T15:33:45.317Z,13.59
2022-10-24T15:36:20.965Z,13.60
2022-10-24T15:38:49.544Z,13.64
2022-10-24T15:41:17.377Z,13.62
2022-10-24T15:43:45.072Z,13.64
2022-10-24T15:46:12.828Z,13.71
2022-10-24T15:48:41.884Z,13.72
2022-10-24T15:51:14.404Z,13.71
2022-10-24T15:53:42.679Z,13.60
2022-10-24T15:56:11.682Z,13.62
2022-10-24T15:58:40.559Z,13.65
2022-10-24T16:01:09.151Z,13.43
2022-10-24T16:03:37.299Z,13.55
2022-10-24T16:06:06.569Z,13.46
2022-10-24T16:08:34.394Z,13.38
2022-10-24T16:11:06.132Z,13.36
2022-10-24T16:13:36.898Z,13.27
2022-10-24T16:16:04.934Z,13.26
2022-10-24T16:18:32.685Z,13.23
2022-10-24T16:21:00.586Z,13.16
2022-10-24T16:23:29.591Z,13.18
2022-10-24T16:25:57.301Z,13.05
2022-10-24T16:28:25.991Z,13.02
2022-10-24T16:30:54.212Z,12.86
2022-10-24T16:33:22.444Z,13.03
2022-10-24T16:35:50.985Z,13.02
2022-10-24T16:38:19.220Z,12.89
2022-10-24T16:40:49.113Z,12.92
2022-10-24T16:43:19.308Z,12.83
2022-10-24T16:45:56.665Z,12.80
2022-10-24T16:48:24.505Z,12.79
2022-10-24T16:50:52.204Z,12.85
2022-10-24T16:53:20.135Z,12.87
2022-10-24T16:55:50.297Z,12.87
2022-10-24T16:58:18.845Z,12.91
2022-10-24T17:00:47.236Z,12.80
2022-10-24T17:03:15.054Z,12.80
2022-10-24T17:08:18.643Z,12.84
2022-10-24T17:10:46.377Z,12.80
2022-10-24T17:13:15.482Z,12.65
2022-10-24T17:15:43.188Z,12.77
2022-10-24T17:18:10.888Z,12.74
2022-10-24T17:20:39.032Z,12.73
2022-10-24T17:23:07.244Z,12.68
2022-10-24T17:25:35.234Z,12.73
2022-10-24T17:28:03.108Z,12.59
2022-10-24T17:30:32.562Z,12.67
2022-10-24T17:33:01.052Z,12.57
2022-10-24T17:35:30.391Z,12.62
2022-10-24T17:38:08.139Z,12.51
2022-10-24T17:40:42.980Z,12.54
2022-10-24T17:43:20.288Z,12.51
2022-10-24T17:45:50.326Z,12.47
2022-10-24T17:48:18.887Z,12.43
2022-10-24T17:50:47.692Z,12.33
2022-10-24T17:53:17.048Z,12.31
2022-10-24T17:55:46.791Z,12.32
2022-10-24T17:58:16.602Z,12.35
2022-10-24T18:00:45.144Z,12.19
2022-10-24T18:03:15.118Z,12.21
2022-10-24T18:05:43.060Z,12.09
2022-10-24T18:08:12.237Z,12.10
2022-10-24T18:10:40.772Z,12.31
2022-10-24T18:13:09.269Z,12.28
2022-10-24T18:15:37.786Z,11.94
2022-10-24T18:18:06.363Z,12.23
2022-10-24T18:20:35.822Z,12.35
2022-10-24T18:23:03.632Z,12.21
2022-10-24T18:25:31.404Z,12.06
2022-10-24T18:27:59.050Z,12.09
2022-10-24T18:30:29.231Z,12.13
2022-10-24T18:32:56.876Z,12.04
2022-10-24T18:35:27.466Z,12.00
2022-10-24T18:37:58.910Z,11.97
2022-10-24T18:40:27.004Z,11.89
2022-10-24T18:42:59.501Z,11.88
2022-10-24T18:45:28.536Z,11.66
2022-10-24T18:47:56.734Z,11.81
2022-10-24T18:50:25.937Z,11.81
2022-10-24T18:53:02.566Z,11.78
2022-10-24T18:55:31.822Z,11.77
2022-10-24T18:58:00.302Z,11.74
2022-10-24T19:00:30.301Z,11.78
2022-10-24T19:03:11.895Z,11.79
2022-10-24T19:05:43.989Z,11.78
2022-10-24T19:08:15.189Z,11.85
2022-10-24T19:10:43.343Z,11.87
2022-10-24T19:13:11.385Z,11.86
2022-10-24T19:15:41.689Z,11.85
2022-10-24T19:18:13.126Z,11.85
2022-10-24T19:20:42.331Z,11.76
2022-10-24T19:23:12.168Z,11.80
2022-10-24T19:25:41.576Z,11.71
2022-10-24T19:28:12.257Z,11.74
2022-10-24T19:30:42.326Z,11.59
2022-10-24T19:33:10.276Z,11.58
2022-10-24T19:35:38.876Z,11.59
2022-10-24T19:38:06.593Z,11.56
2022-10-24T19:40:34.344Z,11.56
2022-10-24T19:43:03.435Z,11.56
2022-10-24T19:45:31.133Z,11.50
2022-10-24T19:47:58.857Z,11.48
2022-10-24T19:50:26.696Z,11.38
2022-10-24T19:52:54.367Z,11.27
2022-10-24T19:55:22.631Z,11.23
2022-10-24T19:57:50.297Z,11.06
2022-10-24T20:00:19.560Z,11.09
2022-10-24T20:02:47.456Z,11.00
2022-10-24T20:05:15.527Z,10.95
2022-10-24T20:07:43.191Z,11.02
2022-10-24T20:10:10.994Z,10.97
2022-10-24T20:12:38.734Z,10.92
2022-10-24T20:15:07.371Z,10.95
2022-10-24T20:17:37.380Z,10.95
2022-10-24T20:20:06.451Z,11.01
2022-10-24T20:22:34.192Z,11.03
2022-10-24T20:25:01.896Z,10.95
2022-10-24T20:27:29.592Z,10.84
2022-10-24T20:29:57.298Z,10.83
2022-10-24T20:32:25.136Z,10.89
2022-10-24T20:34:54.188Z,10.76
2022-10-24T20:37:21.895Z,10.72
2022-10-24T20:39:49.632Z,10.77
2022-10-24T20:42:17.819Z,10.64
2022-10-24T20:44:45.502Z,10.63
2022-10-24T20:47:13.225Z,10.54
2022-10-24T20:49:40.933Z,10.51
2022-10-24T20:54:42.749Z,10.62
2022-10-24T20:57:10.450Z,10.46
2022-10-24T20:59:38.174Z,10.58
2022-10-24T21:02:08.188Z,10.58
2022-10-24T21:04:35.950Z,10.56
2022-10-24T21:07:03.653Z,10.57
2022-10-24T21:09:34.259Z,10.70
2022-10-24T21:12:02.196Z,10.64
2022-10-24T21:14:29.997Z,10.57
2022-10-24T21:16:57.801Z,10.70
2022-10-24T21:19:26.700Z,10.58
2022-10-24T21:21:54.381Z,10.49
2022-10-24T21:24:22.289Z,10.53
2022-10-24T21:26:51.457Z,10.55
2022-10-24T21:29:32.797Z,10.53
2022-10-24T21:32:01.554Z,10.55
2022-10-24T21:34:31.786Z,10.71
2022-10-24T21:37:02.179Z,10.56
2022-10-24T21:39:32.239Z,10.40
2022-10-24T21:42:01.609Z,10.51
2022-10-24T21:44:29.391Z,10.58
2022-10-24T21:46:57.037Z,10.38
2022-10-24T21:49:25.702Z,10.60
2022-10-24T21:51:53.633Z,10.67
2022-10-24T21:54:23.202Z,10.76
2022-10-24T21:56:51.008Z,10.77
2022-10-24T21:59:22.096Z,10.78
2022-10-24T22:01:51.799Z,10.81
2022-10-24T22:04:20.175Z,10.72
2022-10-24T22:06:48.424Z,10.73
2022-10-24T22:09:29.437Z,10.79
2022-10-24T22:11:57.873Z,10.76
2022-10-24T22:14:27.712Z,10.80
2022-10-24T22:16:55.389Z,10.83
2022-10-24T22:19:23.098Z,10.83
2022-10-24T22:21:52.275Z,10.80
2022-10-24T22:24:22.479Z,10.88
2022-10-24T22:26:50.888Z,10.86
2022-10-24T22:29:20.724Z,10.99
2022-10-24T22:31:51.360Z,11.14
2022-10-24T22:34:21.437Z,11.04
2022-10-24T22:36:59.926Z,10.96
2022-10-24T22:39:28.245Z,10.83
2022-10-24T22:41:56.593Z,11.14
2022-10-24T22:44:24.826Z,11.23
2022-10-24T22:47:06.340Z,11.29
2022-10-24T22:49:47.183Z,11.30
2022-10-24T22:52:15.321Z,11.31
2022-10-24T22:54:46.187Z,11.33
2022-10-24T22:57:14.396Z,11.40
2022-10-24T22:59:42.703Z,11.39
2022-10-24T23:02:25.695Z,11.39
2022-10-24T23:05:01.848Z,11.56
2022-10-24T23:07:37.230Z,11.50
2022-10-24T23:10:07.096Z,11.70
2022-10-24T23:12:35.411Z,11.67
2022-10-24T23:15:03.840Z,11.59
2022-10-24T23:17:33.694Z,11.51
2022-10-24T23:20:02.050Z,11.45
2022-10-24T23:22:31.181Z,11.47
2022-10-24T23:25:00.630Z,11.45
2022-10-24T23:27:34.731Z,11.46
2022-10-24T23:30:03.756Z,11.44
2022-10-24T23:32:36.213Z,11.51
2022-10-24T23:35:04.565Z,11.57
2022-10-24T23:37:35.257Z,11.57
2022-10-24T23:40:14.896Z,11.65
2022-10-24T23:42:43.389Z,11.68
2022-10-24T23:45:14.151Z,11.76
2022-10-24T23:48:05.289Z,11.81
2022-10-24T23:50:39.094Z,11.71
2022-10-24T23:53:24.849Z,11.68
2022-10-24T23:55:53.212Z,11.70
2022-10-24T23:58:21.206Z,11.73
